sensor_id;sensor_type;location;lat;lon;timestamp;P1;durP1;ratioP1;P2;durP2;ratioP2
25249;SDS011;13201;51.148;13.738;2023-10-13T00:00:32;13.70;;;7.13;;
25249;SDS011;13201;51.148;13.738;2023-10-13T00:03:03;9.95;;;6.30;;
25249;SDS011;13201;51.148;13.738;2023-10-13T00:05:30;17.48;;;6.85;;
25249;SDS011;13201;51.148;13.738;2023-10-13T00:07:58;11.57;;;6.20;;
25249;SDS011;13201;51.148;13.738;2023-10-13T00:10:26;12.38;;;5.85;;
25249;SDS011;13201;51.148;13.738;2023-10-13T00:12:53;11.00;;;6.30;;
25249;SDS011;13201;51.148;13.738;2023-10-13T00:15:19;10.60;;;6.20;;
25249;SDS011;13201;51.148;13.738;2023-10-13T00:17:53;10.45;;;6.75;;
25249;SDS011;13201;51.148;13.738;2023-10-13T00:20:20;11.35;;;6.15;;
25249;SDS011;13201;51.148;13.738;2023-10-13T00:23:03;11.35;;;6.25;;
25249;SDS011;13201;51.148;13.738;2023-10-13T00:25:29;9.45;;;5.80;;
25249;SDS011;13201;51.148;13.738;2023-10-13T00:28:08;12.68;;;5.82;;
25249;SDS011;13201;51.148;13.738;2023-10-13T00:30:34;11.48;;;6.50;;
25249;SDS011;13201;51.148;13.738;2023-10-13T00:33:00;10.52;;;5.93;;
25249;SDS011;13201;51.148;13.738;2023-10-13T00:35:26;10.30;;;5.75;;
25249;SDS011;13201;51.148;13.738;2023-10-13T00:38:05;9.95;;;6.70;;
25249;SDS011;13201;51.148;13.738;2023-10-13T00:40:41;7.35;;;5.43;;
25249;SDS011;13201;51.148;13.738;2023-10-13T00:43:21;10.68;;;4.60;;
25249;SDS011;13201;51.148;13.738;2023-10-13T00:45:49;11.40;;;6.30;;
25249;SDS011;13201;51.148;13.738;2023-10-13T00:48:36;11.65;;;6.82;;
25249;SDS011;13201;51.148;13.738;2023-10-13T00:51:08;12.82;;;5.60;;
25249;SDS011;13201;51.148;13.738;2023-10-13T00:53:59;9.23;;;5.50;;
25249;SDS011;13201;51.148;13.738;2023-10-13T00:56:27;12.00;;;6.07;;
25249;SDS011;13201;51.148;13.738;2023-10-13T00:58:55;10.38;;;5.72;;
25249;SDS011;13201;51.148;13.738;2023-10-13T01:01:27;12.65;;;5.70;;
25249;SDS011;13201;51.148;13.738;2023-10-13T01:28:39;11.82;;;6.10;;
25249;SDS011;13201;51.148;13.738;2023-10-13T01:31:12;11.35;;;5.53;;
25249;SDS011;13201;51.148;13.738;2023-10-13T01:33:41;9.95;;;5.57;;
25249;SDS011;13201;51.148;13.738;2023-10-13T01:36:07;12.73;;;6.18;;
25249;SDS011;13201;51.148;13.738;2023-10-13T01:38:33;9.15;;;5.70;;
25249;SDS011;13201;51.148;13.738;2023-10-13T01:40:58;11.55;;;6.40;;
25249;SDS011;13201;51.148;13.738;2023-10-13T01:43:24;13.32;;;6.45;;
25249;SDS011;13201;51.148;13.738;2023-10-13T01:45:50;12.18;;;5.85;;
25249;SDS011;13201;51.148;13.738;2023-10-13T01:48:16;10.57;;;5.15;;
25249;SDS011;13201;51.148;13.738;2023-10-13T01:50:42;10.25;;;5.43;;
25249;SDS011;13201;51.148;13.738;2023-10-13T01:53:13;9.68;;;5.13;;
25249;SDS011;13201;51.148;13.738;2023-10-13T01:55:42;9.93;;;4.78;;
25249;SDS011;13201;51.148;13.738;2023-10-13T01:58:14;11.38;;;5.90;;
25249;SDS011;13201;51.148;13.738;2023-10-13T02:00:44;8.85;;;5.53;;
25249;SDS011;13201;51.148;13.738;2023-10-13T02:03:12;9.57;;;5.28;;
25249;SDS011;13201;51.148;13.738;2023-10-13T02:05:45;9.88;;;5.28;;
25249;SDS011;13201;51.148;13.738;2023-10-13T02:08:15;9.18;;;5.25;;
25249;SDS011;13201;51.148;13.738;2023-10-13T02:10:52;9.13;;;5.25;;
25249;SDS011;13201;51.148;13.738;2023-10-13T02:13:20;10.88;;;4.90;;
25249;SDS011;13201;51.148;13.738;2023-10-13T02:15:48;11.18;;;4.90;;
25249;SDS011;13201;51.148;13.738;2023-10-13T02:18:18;7.18;;;4.80;;
25249;SDS011;13201;51.148;13.738;2023-10-13T02:20:52;7.80;;;4.80;;
25249;SDS011;13201;51.148;13.738;2023-10-13T02:23:22;7.95;;;4.72;;
25249;SDS011;13201;51.148;13.738;2023-10-13T02:25:54;10.63;;;4.68;;
25249;SDS011;13201;51.148;13.738;2023-10-13T02:28:35;8.98;;;4.75;;
25249;SDS011;13201;51.148;13.738;2023-10-13T02:31:01;9.43;;;4.53;;
25249;SDS011;13201;51.148;13.738;2023-10-13T02:33:28;7.85;;;5.18;;
25249;SDS011;13201;51.148;13.738;2023-10-13T02:38:28;9.98;;;4.78;;
25249;SDS011;13201;51.148;13.738;2023-10-13T02:40:57;9.77;;;4.50;;
25249;SDS011;13201;51.148;13.738;2023-10-13T02:43:30;15.02;;;5.88;;
25249;SDS011;13201;51.148;13.738;2023-10-13T02:46:03;9.20;;;4.22;;
25249;SDS011;13201;51.148;13.738;2023-10-13T02:48:29;11.48;;;5.30;;
25249;SDS011;13201;51.148;13.738;2023-10-13T02:51:04;9.20;;;4.40;;
25249;SDS011;13201;51.148;13.738;2023-10-13T02:53:40;8.40;;;4.55;;
25249;SDS011;13201;51.148;13.738;2023-10-13T02:56:12;6.63;;;4.13;;
25249;SDS011;13201;51.148;13.738;2023-10-13T02:58:38;9.38;;;4.07;;
25249;SDS011;13201;51.148;13.738;2023-10-13T03:01:08;9.75;;;4.55;;
25249;SDS011;13201;51.148;13.738;2023-10-13T03:03:51;6.63;;;4.30;;
25249;SDS011;13201;51.148;13.738;2023-10-13T03:06:19;8.18;;;3.92;;
25249;SDS011;13201;51.148;13.738;2023-10-13T03:08:57;7.60;;;3.85;;
25249;SDS011;13201;51.148;13.738;2023-10-13T03:11:38;7.88;;;4.32;;
25249;SDS011;13201;51.148;13.738;2023-10-13T03:14:12;12.75;;;4.55;;
25249;SDS011;13201;51.148;13.738;2023-10-13T03:16:49;6.40;;;4.05;;
25249;SDS011;13201;51.148;13.738;2023-10-13T03:19:16;8.50;;;4.10;;
25249;SDS011;13201;51.148;13.738;2023-10-13T03:21:44;6.43;;;4.13;;
25249;SDS011;13201;51.148;13.738;2023-10-13T03:24:19;8.57;;;4.32;;
25249;SDS011;13201;51.148;13.738;2023-10-13T03:26:58;6.47;;;3.88;;
25249;SDS011;13201;51.148;13.738;2023-10-13T03:29:33;9.05;;;4.20;;
25249;SDS011;13201;51.148;13.738;2023-10-13T03:32:07;7.68;;;3.75;;
25249;SDS011;13201;51.148;13.738;2023-10-13T03:34:43;7.30;;;4.47;;
25249;SDS011;13201;51.148;13.738;2023-10-13T03:37:19;5.68;;;3.92;;
25249;SDS011;13201;51.148;13.738;2023-10-13T03:40:03;7.07;;;4.00;;
25249;SDS011;13201;51.148;13.738;2023-10-13T03:42:54;7.60;;;4.28;;
25249;SDS011;13201;51.148;13.738;2023-10-13T03:45:34;8.63;;;3.90;;
25249;SDS011;13201;51.148;13.738;2023-10-13T03:48:17;6.10;;;4.03;;
25249;SDS011;13201;51.148;13.738;2023-10-13T03:50:50;8.80;;;4.82;;
25249;SDS011;13201;51.148;13.738;2023-10-13T03:53:28;7.47;;;3.90;;
25249;SDS011;13201;51.148;13.738;2023-10-13T03:56:01;7.97;;;4.53;;
25249;SDS011;13201;51.148;13.738;2023-10-13T03:58:33;7.13;;;4.00;;
25249;SDS011;13201;51.148;13.738;2023-10-13T04:01:11;6.65;;;4.03;;
25249;SDS011;13201;51.148;13.738;2023-10-13T04:03:40;8.93;;;4.32;;
25249;SDS011;13201;51.148;13.738;2023-10-13T04:06:25;7.38;;;4.63;;
25249;SDS011;13201;51.148;13.738;2023-10-13T04:09:10;9.93;;;4.40;;
25249;SDS011;13201;51.148;13.738;2023-10-13T04:11:54;8.23;;;4.10;;
25249;SDS011;13201;51.148;13.738;2023-10-13T04:14:26;9.48;;;4.53;;
25249;SDS011;13201;51.148;13.738;2023-10-13T04:17:14;8.63;;;4.25;;
25249;SDS011;13201;51.148;13.738;2023-10-13T04:19:40;10.63;;;4.43;;
25249;SDS011;13201;51.148;13.738;2023-10-13T04:22:25;7.13;;;4.18;;
25249;SDS011;13201;51.148;13.738;2023-10-13T04:25:15;7.07;;;4.28;;
25249;SDS011;13201;51.148;13.738;2023-10-13T04:28:05;7.68;;;4.22;;
25249;SDS011;13201;51.148;13.738;2023-10-13T04:30:39;6.93;;;4.00;;
25249;SDS011;13201;51.148;13.738;2023-10-13T04:33:23;8.27;;;4.22;;
25249;SDS011;13201;51.148;13.738;2023-10-13T04:36:12;11.77;;;4.25;;
25249;SDS011;13201;51.148;13.738;2023-10-13T04:41:28;12.20;;;4.80;;
25249;SDS011;13201;51.148;13.738;2023-10-13T04:44:01;7.07;;;4.10;;
25249;SDS011;13201;51.148;13.738;2023-10-13T04:46:48;7.68;;;3.72;;
25249;SDS011;13201;51.148;13.738;2023-10-13T04:49:14;8.60;;;4.10;;
25249;SDS011;13201;51.148;13.738;2023-10-13T04:54:36;11.63;;;5.53;;
25249;SDS011;13201;51.148;13.738;2023-10-13T04:57:19;6.63;;;4.18;;
25249;SDS011;13201;51.148;13.738;2023-10-13T04:59:58;9.57;;;4.30;;
25249;SDS011;13201;51.148;13.738;2023-10-13T05:02:43;7.90;;;4.10;;
25249;SDS011;13201;51.148;13.738;2023-10-13T05:05:26;7.15;;;4.00;;
25249;SDS011;13201;51.148;13.738;2023-10-13T05:08:10;6.30;;;4.10;;
25249;SDS011;13201;51.148;13.738;2023-10-13T05:10:55;9.00;;;4.10;;
25249;SDS011;13201;51.148;13.738;2023-10-13T05:13:39;7.05;;;4.22;;
25249;SDS011;13201;51.148;13.738;2023-10-13T05:16:23;7.15;;;4.25;;
25249;SDS011;13201;51.148;13.738;2023-10-13T05:19:07;8.80;;;4.10;;
25249;SDS011;13201;51.148;13.738;2023-10-13T05:21:51;8.73;;;4.32;;
25249;SDS011;13201;51.148;13.738;2023-10-13T05:24:36;9.02;;;4.40;;
25249;SDS011;13201;51.148;13.738;2023-10-13T05:27:20;7.22;;;3.85;;
25249;SDS011;13201;51.148;13.738;2023-10-13T05:30:04;7.93;;;4.15;;
25249;SDS011;13201;51.148;13.738;2023-10-13T05:32:49;7.13;;;4.40;;
25249;SDS011;13201;51.148;13.738;2023-10-13T05:35:33;8.27;;;3.80;;
25249;SDS011;13201;51.148;13.738;2023-10-13T05:38:17;9.88;;;4.32;;
25249;SDS011;13201;51.148;13.738;2023-10-13T05:41:02;7.13;;;3.97;;
25249;SDS011;13201;51.148;13.738;2023-10-13T05:43:48;10.23;;;4.00;;
25249;SDS011;13201;51.148;13.738;2023-10-13T05:46:33;7.65;;;4.15;;
25249;SDS011;13201;51.148;13.738;2023-10-13T05:49:05;9.60;;;4.40;;
25249;SDS011;13201;51.148;13.738;2023-10-13T05:51:52;13.50;;;7.65;;
25249;SDS011;13201;51.148;13.738;2023-10-13T05:54:17;9.32;;;4.30;;
25249;SDS011;13201;51.148;13.738;2023-10-13T05:56:44;5.68;;;4.18;;
25249;SDS011;13201;51.148;13.738;2023-10-13T05:59:32;8.52;;;4.40;;
25249;SDS011;13201;51.148;13.738;2023-10-13T06:02:19;9.90;;;4.72;;
25249;SDS011;13201;51.148;13.738;2023-10-13T06:05:05;11.63;;;5.13;;
25249;SDS011;13201;51.148;13.738;2023-10-13T06:07:54;8.23;;;4.03;;
25249;SDS011;13201;51.148;13.738;2023-10-13T06:10:39;7.32;;;4.25;;
25249;SDS011;13201;51.148;13.738;2023-10-13T06:13:23;8.85;;;4.43;;
25249;SDS011;13201;51.148;13.738;2023-10-13T06:16:11;5.47;;;3.80;;
25249;SDS011;13201;51.148;13.738;2023-10-13T06:18:57;6.18;;;4.03;;
25249;SDS011;13201;51.148;13.738;2023-10-13T06:21:42;7.15;;;4.18;;
25249;SDS011;13201;51.148;13.738;2023-10-13T06:24:26;7.50;;;3.63;;
25249;SDS011;13201;51.148;13.738;2023-10-13T06:27:10;7.63;;;4.15;;
25249;SDS011;13201;51.148;13.738;2023-10-13T06:29:55;5.95;;;3.40;;
25249;SDS011;13201;51.148;13.738;2023-10-13T06:32:21;5.35;;;3.78;;
25249;SDS011;13201;51.148;13.738;2023-10-13T06:34:57;7.88;;;3.60;;
25249;SDS011;13201;51.148;13.738;2023-10-13T06:37:23;7.25;;;3.60;;
25249;SDS011;13201;51.148;13.738;2023-10-13T06:39:58;8.18;;;3.90;;
25249;SDS011;13201;51.148;13.738;2023-10-13T06:42:31;7.70;;;3.75;;
25249;SDS011;13201;51.148;13.738;2023-10-13T06:45:00;7.50;;;3.33;;
25249;SDS011;13201;51.148;13.738;2023-10-13T06:47:33;4.72;;;3.30;;
25249;SDS011;13201;51.148;13.738;2023-10-13T06:50:05;7.00;;;3.78;;
25249;SDS011;13201;51.148;13.738;2023-10-13T06:52:40;7.40;;;3.17;;
25249;SDS011;13201;51.148;13.738;2023-10-13T06:55:09;7.90;;;3.50;;
25249;SDS011;13201;51.148;13.738;2023-10-13T06:57:42;6.63;;;3.55;;
25249;SDS011;13201;51.148;13.738;2023-10-13T07:00:09;6.15;;;3.40;;
25249;SDS011;13201;51.148;13.738;2023-10-13T07:02:45;7.60;;;3.95;;
25249;SDS011;13201;51.148;13.738;2023-10-13T07:05:12;6.85;;;3.78;;
25249;SDS011;13201;51.148;13.738;2023-10-13T07:07:39;5.50;;;3.38;;
25249;SDS011;13201;51.148;13.738;2023-10-13T07:10:12;5.50;;;3.60;;
25249;SDS011;13201;51.148;13.738;2023-10-13T07:12:38;7.40;;;3.78;;
25249;SDS011;13201;51.148;13.738;2023-10-13T07:15:10;6.63;;;3.63;;
25249;SDS011;13201;51.148;13.738;2023-10-13T07:17:44;7.68;;;3.55;;
25249;SDS011;13201;51.148;13.738;2023-10-13T07:20:19;8.10;;;3.92;;
25249;SDS011;13201;51.148;13.738;2023-10-13T07:22:54;6.22;;;3.75;;
25249;SDS011;13201;51.148;13.738;2023-10-13T07:25:23;6.78;;;3.90;;
25249;SDS011;13201;51.148;13.738;2023-10-13T07:27:50;8.38;;;4.22;;
25249;SDS011;13201;51.148;13.738;2023-10-13T07:30:17;6.07;;;4.23;;
25249;SDS011;13201;51.148;13.738;2023-10-13T07:32:45;5.68;;;4.00;;
25249;SDS011;13201;51.148;13.738;2023-10-13T07:35:14;7.33;;;4.37;;
25249;SDS011;13201;51.148;13.738;2023-10-13T07:37:45;10.00;;;4.80;;
25249;SDS011;13201;51.148;13.738;2023-10-13T07:40:17;6.20;;;4.63;;
25249;SDS011;13201;51.148;13.738;2023-10-13T07:42:52;7.97;;;5.40;;
25249;SDS011;13201;51.148;13.738;2023-10-13T07:45:28;8.40;;;5.57;;
25249;SDS011;13201;51.148;13.738;2023-10-13T07:48:05;8.77;;;5.82;;
25249;SDS011;13201;51.148;13.738;2023-10-13T07:50:43;10.27;;;5.93;;
25249;SDS011;13201;51.148;13.738;2023-10-13T07:53:10;7.90;;;5.72;;
25249;SDS011;13201;51.148;13.738;2023-10-13T07:55:48;7.82;;;5.75;;
25249;SDS011;13201;51.148;13.738;2023-10-13T07:58:21;10.65;;;6.22;;
25249;SDS011;13201;51.148;13.738;2023-10-13T08:00:51;14.32;;;5.70;;
25249;SDS011;13201;51.148;13.738;2023-10-13T08:03:32;9.50;;;5.75;;
25249;SDS011;13201;51.148;13.738;2023-10-13T08:06:10;10.80;;;5.65;;
25249;SDS011;13201;51.148;13.738;2023-10-13T08:08:38;10.48;;;5.50;;
25249;SDS011;13201;51.148;13.738;2023-10-13T08:11:04;9.63;;;5.30;;
25249;SDS011;13201;51.148;13.738;2023-10-13T08:13:36;8.00;;;5.15;;
25249;SDS011;13201;51.148;13.738;2023-10-13T08:16:11;8.30;;;5.20;;
25249;SDS011;13201;51.148;13.738;2023-10-13T08:18:49;9.10;;;5.00;;
25249;SDS011;13201;51.148;13.738;2023-10-13T08:21:19;6.55;;;4.80;;
25249;SDS011;13201;51.148;13.738;2023-10-13T08:23:57;7.80;;;4.75;;
25249;SDS011;13201;51.148;13.738;2023-10-13T08:28:58;7.10;;;4.65;;
25249;SDS011;13201;51.148;13.738;2023-10-13T08:31:47;8.18;;;4.60;;
25249;SDS011;13201;51.148;13.738;2023-10-13T08:34:31;7.85;;;4.90;;
25249;SDS011;13201;51.148;13.738;2023-10-13T08:37:06;7.32;;;5.25;;
25249;SDS011;13201;51.148;13.738;2023-10-13T08:39:48;8.93;;;5.32;;
25249;SDS011;13201;51.148;13.738;2023-10-13T08:42:29;6.50;;;5.13;;
25249;SDS011;13201;51.148;13.738;2023-10-13T08:45:09;9.98;;;5.72;;
25249;SDS011;13201;51.148;13.738;2023-10-13T08:47:51;7.55;;;5.43;;
25249;SDS011;13201;51.148;13.738;2023-10-13T08:50:49;9.95;;;5.68;;
25249;SDS011;13201;51.148;13.738;2023-10-13T08:56:05;8.88;;;6.00;;
25249;SDS011;13201;51.148;13.738;2023-10-13T08:58:50;11.38;;;5.85;;
25249;SDS011;13201;51.148;13.738;2023-10-13T09:01:19;7.32;;;5.28;;
25249;SDS011;13201;51.148;13.738;2023-10-13T09:04:14;11.15;;;5.22;;
25249;SDS011;13201;51.148;13.738;2023-10-13T09:12:16;5.75;;;4.00;;
25249;SDS011;13201;51.148;13.738;2023-10-13T09:14:44;7.28;;;3.65;;
25249;SDS011;13201;51.148;13.738;2023-10-13T09:17:26;10.23;;;3.25;;
25249;SDS011;13201;51.148;13.738;2023-10-13T09:19:58;6.40;;;3.60;;
25249;SDS011;13201;51.148;13.738;2023-10-13T09:22:44;9.15;;;3.92;;
25249;SDS011;13201;51.148;13.738;2023-10-13T09:25:21;5.82;;;3.25;;
25249;SDS011;13201;51.148;13.738;2023-10-13T09:27:48;6.53;;;2.80;;
25249;SDS011;13201;51.148;13.738;2023-10-13T09:30:18;8.15;;;3.00;;
25249;SDS011;13201;51.148;13.738;2023-10-13T09:32:47;4.28;;;2.20;;
25249;SDS011;13201;51.148;13.738;2023-10-13T09:35:29;4.72;;;2.30;;
25249;SDS011;13201;51.148;13.738;2023-10-13T09:37:59;8.52;;;2.20;;
25249;SDS011;13201;51.148;13.738;2023-10-13T09:40:27;3.80;;;2.35;;
25249;SDS011;13201;51.148;13.738;2023-10-13T09:43:00;7.18;;;2.30;;
25249;SDS011;13201;51.148;13.738;2023-10-13T09:45:32;3.60;;;2.60;;
25249;SDS011;13201;51.148;13.738;2023-10-13T09:48:05;6.45;;;2.22;;
25249;SDS011;13201;51.148;13.738;2023-10-13T09:50:41;4.65;;;2.20;;
25249;SDS011;13201;51.148;13.738;2023-10-13T09:53:10;5.50;;;2.35;;
25249;SDS011;13201;51.148;13.738;2023-10-13T09:55:43;6.13;;;2.70;;
25249;SDS011;13201;51.148;13.738;2023-10-13T09:58:12;6.63;;;2.28;;
25249;SDS011;13201;51.148;13.738;2023-10-13T10:00:50;9.38;;;2.65;;
25249;SDS011;13201;51.148;13.738;2023-10-13T10:06:32;5.10;;;2.60;;
25249;SDS011;13201;51.148;13.738;2023-10-13T10:09:07;6.13;;;2.40;;
25249;SDS011;13201;51.148;13.738;2023-10-13T10:14:42;8.13;;;3.15;;
25249;SDS011;13201;51.148;13.738;2023-10-13T10:17:21;4.25;;;2.70;;
25249;SDS011;13201;51.148;13.738;2023-10-13T10:19:52;6.53;;;2.70;;
25249;SDS011;13201;51.148;13.738;2023-10-13T10:22:28;7.93;;;2.63;;
25249;SDS011;13201;51.148;13.738;2023-10-13T10:25:14;5.88;;;2.85;;
25249;SDS011;13201;51.148;13.738;2023-10-13T10:27:58;6.85;;;2.60;;
25249;SDS011;13201;51.148;13.738;2023-10-13T10:32:57;6.43;;;2.45;;
25249;SDS011;13201;51.148;13.738;2023-10-13T10:35:27;11.73;;;3.25;;
25249;SDS011;13201;51.148;13.738;2023-10-13T10:38:07;8.55;;;3.22;;
25249;SDS011;13201;51.148;13.738;2023-10-13T10:40:47;8.82;;;2.90;;
25249;SDS011;13201;51.148;13.738;2023-10-13T10:49:07;9.90;;;3.08;;
25249;SDS011;13201;51.148;13.738;2023-10-13T10:51:33;6.72;;;3.22;;
25249;SDS011;13201;51.148;13.738;2023-10-13T10:54:17;8.07;;;3.50;;
25249;SDS011;13201;51.148;13.738;2023-10-13T10:56:43;12.40;;;3.55;;
25249;SDS011;13201;51.148;13.738;2023-10-13T10:59:17;7.13;;;3.10;;
25249;SDS011;13201;51.148;13.738;2023-10-13T11:01:45;8.73;;;3.20;;
25249;SDS011;13201;51.148;13.738;2023-10-13T11:04:16;5.88;;;2.63;;
25249;SDS011;13201;51.148;13.738;2023-10-13T11:06:52;10.82;;;2.97;;
25249;SDS011;13201;51.148;13.738;2023-10-13T11:09:35;9.07;;;3.20;;
25249;SDS011;13201;51.148;13.738;2023-10-13T11:12:11;9.60;;;3.08;;
25249;SDS011;13201;51.148;13.738;2023-10-13T11:14:44;9.32;;;2.83;;
25249;SDS011;13201;51.148;13.738;2023-10-13T11:17:22;7.57;;;3.05;;
25249;SDS011;13201;51.148;13.738;2023-10-13T11:20:11;18.38;;;3.15;;
25249;SDS011;13201;51.148;13.738;2023-10-13T11:22:41;9.50;;;3.17;;
25249;SDS011;13201;51.148;13.738;2023-10-13T11:25:19;9.95;;;3.30;;
25249;SDS011;13201;51.148;13.738;2023-10-13T11:27:55;9.32;;;3.15;;
25249;SDS011;13201;51.148;13.738;2023-10-13T11:30:23;8.85;;;3.35;;
25249;SDS011;13201;51.148;13.738;2023-10-13T11:33:10;7.53;;;3.00;;
25249;SDS011;13201;51.148;13.738;2023-10-13T11:35:38;9.93;;;3.00;;
25249;SDS011;13201;51.148;13.738;2023-10-13T11:38:26;9.82;;;3.38;;
25249;SDS011;13201;51.148;13.738;2023-10-13T11:41:14;9.73;;;2.90;;
25249;SDS011;13201;51.148;13.738;2023-10-13T11:43:47;8.20;;;3.10;;
25249;SDS011;13201;51.148;13.738;2023-10-13T11:46:23;9.43;;;3.13;;
25249;SDS011;13201;51.148;13.738;2023-10-13T11:49:05;10.63;;;3.40;;
25249;SDS011;13201;51.148;13.738;2023-10-13T11:54:16;10.45;;;3.40;;
25249;SDS011;13201;51.148;13.738;2023-10-13T11:56:43;8.68;;;3.50;;
25249;SDS011;13201;51.148;13.738;2023-10-13T12:01:49;12.07;;;3.58;;
25249;SDS011;13201;51.148;13.738;2023-10-13T12:04:34;14.77;;;3.60;;
25249;SDS011;13201;51.148;13.738;2023-10-13T12:07:08;11.52;;;3.47;;
25249;SDS011;13201;51.148;13.738;2023-10-13T12:10:05;10.10;;;3.38;;
25249;SDS011;13201;51.148;13.738;2023-10-13T12:12:40;14.05;;;4.10;;
25249;SDS011;13201;51.148;13.738;2023-10-13T12:15:08;13.55;;;3.58;;
25249;SDS011;13201;51.148;13.738;2023-10-13T12:17:35;11.38;;;4.07;;
25249;SDS011;13201;51.148;13.738;2023-10-13T12:20:01;14.30;;;3.20;;
25249;SDS011;13201;51.148;13.738;2023-10-13T12:22:33;12.07;;;3.92;;
25249;SDS011;13201;51.148;13.738;2023-10-13T12:25:09;13.63;;;4.38;;
25249;SDS011;13201;51.148;13.738;2023-10-13T12:27:50;11.77;;;3.72;;
25249;SDS011;13201;51.148;13.738;2023-10-13T12:30:25;10.70;;;3.65;;
25249;SDS011;13201;51.148;13.738;2023-10-13T12:33:09;12.52;;;4.10;;
25249;SDS011;13201;51.148;13.738;2023-10-13T12:35:35;11.07;;;3.45;;
25249;SDS011;13201;51.148;13.738;2023-10-13T12:38:23;14.68;;;3.67;;
25249;SDS011;13201;51.148;13.738;2023-10-13T12:41:04;15.95;;;4.28;;
25249;SDS011;13201;51.148;13.738;2023-10-13T12:43:51;15.65;;;4.40;;
25249;SDS011;13201;51.148;13.738;2023-10-13T12:46:35;11.10;;;3.65;;
25249;SDS011;13201;51.148;13.738;2023-10-13T12:49:19;14.10;;;4.00;;
25249;SDS011;13201;51.148;13.738;2023-10-13T12:52:03;12.40;;;4.00;;
25249;SDS011;13201;51.148;13.738;2023-10-13T12:54:30;10.82;;;3.83;;
25249;SDS011;13201;51.148;13.738;2023-10-13T12:57:04;14.05;;;4.13;;
25249;SDS011;13201;51.148;13.738;2023-10-13T12:59:34;13.82;;;3.95;;
25249;SDS011;13201;51.148;13.738;2023-10-13T13:02:00;11.57;;;3.80;;
25249;SDS011;13201;51.148;13.738;2023-10-13T13:04:31;16.25;;;4.10;;
25249;SDS011;13201;51.148;13.738;2023-10-13T13:07:01;11.98;;;4.18;;
25249;SDS011;13201;51.148;13.738;2023-10-13T13:09:30;10.07;;;3.95;;
25249;SDS011;13201;51.148;13.738;2023-10-13T13:11:56;11.77;;;4.32;;
25249;SDS011;13201;51.148;13.738;2023-10-13T13:14:25;14.98;;;4.63;;
25249;SDS011;13201;51.148;13.738;2023-10-13T13:16:57;21.50;;;4.60;;
25249;SDS011;13201;51.148;13.738;2023-10-13T13:19:32;17.98;;;4.80;;
25249;SDS011;13201;51.148;13.738;2023-10-13T13:22:01;10.35;;;4.70;;
25249;SDS011;13201;51.148;13.738;2023-10-13T13:24:34;13.88;;;4.90;;
25249;SDS011;13201;51.148;13.738;2023-10-13T13:27:00;16.58;;;6.18;;
25249;SDS011;13201;51.148;13.738;2023-10-13T13:29:30;18.52;;;4.95;;
25249;SDS011;13201;51.148;13.738;2023-10-13T13:31:56;12.60;;;4.00;;
25249;SDS011;13201;51.148;13.738;2023-10-13T13:34:21;10.35;;;4.20;;
25249;SDS011;13201;51.148;13.738;2023-10-13T13:36:47;10.55;;;4.22;;
25249;SDS011;13201;51.148;13.738;2023-10-13T13:39:20;12.80;;;4.30;;
25249;SDS011;13201;51.148;13.738;2023-10-13T13:41:55;14.93;;;4.57;;
25249;SDS011;13201;51.148;13.738;2023-10-13T13:44:24;13.80;;;4.55;;
25249;SDS011;13201;51.148;13.738;2023-10-13T13:47:00;14.18;;;4.70;;
25249;SDS011;13201;51.148;13.738;2023-10-13T13:49:36;16.85;;;4.32;;
25249;SDS011;13201;51.148;13.738;2023-10-13T13:52:08;12.20;;;4.78;;
25249;SDS011;13201;51.148;13.738;2023-10-13T13:54:34;11.10;;;4.32;;
25249;SDS011;13201;51.148;13.738;2023-10-13T13:57:00;11.40;;;4.30;;
25249;SDS011;13201;51.148;13.738;2023-10-13T13:59:26;14.63;;;4.75;;
25249;SDS011;13201;51.148;13.738;2023-10-13T14:01:58;11.18;;;4.07;;
25249;SDS011;13201;51.148;13.738;2023-10-13T14:06:56;15.85;;;4.10;;
25249;SDS011;13201;51.148;13.738;2023-10-13T14:09:21;10.30;;;4.68;;
25249;SDS011;13201;51.148;13.738;2023-10-13T14:12:05;14.25;;;4.93;;
25249;SDS011;13201;51.148;13.738;2023-10-13T14:14:50;9.73;;;4.18;;
25249;SDS011;13201;51.148;13.738;2023-10-13T14:17:21;10.75;;;4.03;;
25249;SDS011;13201;51.148;13.738;2023-10-13T14:19:54;16.45;;;4.47;;
25249;SDS011;13201;51.148;13.738;2023-10-13T14:22:23;15.02;;;6.82;;
25249;SDS011;13201;51.148;13.738;2023-10-13T14:24:50;16.50;;;4.75;;
25249;SDS011;13201;51.148;13.738;2023-10-13T14:27:20;12.75;;;6.43;;
25249;SDS011;13201;51.148;13.738;2023-10-13T14:29:48;19.27;;;5.25;;
25249;SDS011;13201;51.148;13.738;2023-10-13T14:32:18;14.85;;;7.10;;
25249;SDS011;13201;51.148;13.738;2023-10-13T14:34:45;13.45;;;5.32;;
25249;SDS011;13201;51.148;13.738;2023-10-13T14:37:13;15.35;;;4.57;;
25249;SDS011;13201;51.148;13.738;2023-10-13T14:39:46;12.45;;;4.15;;
25249;SDS011;13201;51.148;13.738;2023-10-13T14:42:11;13.55;;;4.80;;
25249;SDS011;13201;51.148;13.738;2023-10-13T14:44:37;9.07;;;4.03;;
25249;SDS011;13201;51.148;13.738;2023-10-13T14:47:03;9.68;;;3.97;;
25249;SDS011;13201;51.148;13.738;2023-10-13T14:49:31;14.10;;;4.30;;
25249;SDS011;13201;51.148;13.738;2023-10-13T14:51:56;11.57;;;4.40;;
25249;SDS011;13201;51.148;13.738;2023-10-13T14:54:24;10.48;;;4.10;;
25249;SDS011;13201;51.148;13.738;2023-10-13T14:57:06;9.50;;;4.20;;
25249;SDS011;13201;51.148;13.738;2023-10-13T14:59:32;10.52;;;4.35;;
25249;SDS011;13201;51.148;13.738;2023-10-13T15:02:03;8.88;;;4.05;;
25249;SDS011;13201;51.148;13.738;2023-10-13T15:04:29;12.52;;;4.00;;
25249;SDS011;13201;51.148;13.738;2023-10-13T15:06:58;11.10;;;4.40;;
25249;SDS011;13201;51.148;13.738;2023-10-13T15:09:26;14.98;;;4.28;;
25249;SDS011;13201;51.148;13.738;2023-10-13T15:11:53;10.32;;;4.85;;
25249;SDS011;13201;51.148;13.738;2023-10-13T15:14:19;15.13;;;4.50;;
25249;SDS011;13201;51.148;13.738;2023-10-13T15:16:45;12.30;;;4.32;;
25249;SDS011;13201;51.148;13.738;2023-10-13T15:19:11;9.63;;;3.90;;
25249;SDS011;13201;51.148;13.738;2023-10-13T15:21:37;20.97;;;4.60;;
25249;SDS011;13201;51.148;13.738;2023-10-13T15:24:06;13.75;;;4.32;;
25249;SDS011;13201;51.148;13.738;2023-10-13T15:26:52;10.73;;;4.45;;
25249;SDS011;13201;51.148;13.738;2023-10-13T15:29:26;13.75;;;4.18;;
25249;SDS011;13201;51.148;13.738;2023-10-13T15:32:00;12.25;;;4.22;;
25249;SDS011;13201;51.148;13.738;2023-10-13T15:34:26;13.68;;;5.20;;
25249;SDS011;13201;51.148;13.738;2023-10-13T15:39:20;12.40;;;4.75;;
25249;SDS011;13201;51.148;13.738;2023-10-13T15:41:50;11.23;;;5.43;;
25249;SDS011;13201;51.148;13.738;2023-10-13T15:44:19;16.25;;;5.18;;
25249;SDS011;13201;51.148;13.738;2023-10-13T15:46:49;15.85;;;4.93;;
25249;SDS011;13201;51.148;13.738;2023-10-13T15:49:18;12.23;;;4.30;;
25249;SDS011;13201;51.148;13.738;2023-10-13T15:51:44;10.70;;;4.53;;
25249;SDS011;13201;51.148;13.738;2023-10-13T15:54:10;13.23;;;4.30;;
25249;SDS011;13201;51.148;13.738;2023-10-13T15:56:46;13.98;;;4.75;;
25249;SDS011;13201;51.148;13.738;2023-10-13T15:59:13;9.88;;;4.43;;
25249;SDS011;13201;51.148;13.738;2023-10-13T16:01:39;11.90;;;4.60;;
25249;SDS011;13201;51.148;13.738;2023-10-13T16:04:09;8.50;;;3.90;;
25249;SDS011;13201;51.148;13.738;2023-10-13T16:06:42;13.00;;;4.72;;
25249;SDS011;13201;51.148;13.738;2023-10-13T16:09:15;11.57;;;4.72;;
25249;SDS011;13201;51.148;13.738;2023-10-13T16:11:47;11.50;;;4.83;;
25249;SDS011;13201;51.148;13.738;2023-10-13T16:14:14;14.10;;;4.65;;
25249;SDS011;13201;51.148;13.738;2023-10-13T16:16:44;11.73;;;4.35;;